Airfield :
LOGIN :

Register | Disclaimer

   EN    FR    IT 

 










Legend :    VFR   Marginal VFR   IFR   Intensive IFR   Very Intensive IFR
Visi :
Ceiling :
>= 8 km
>= 3000ft
5 to 8 km
1000 to 3000 ft
1500m to 5 km
500 to 1000 ft
800 to 1500m
200 to 500 ft
< 800m
< 200 ft
Symbols :   Thunderstorms  Fog  Heavy snow  Heavy precipitations  Wind > 20 kt
SIGMETs :     Misc.  Thunderstorms  Icing  Turbulence  Mountain Waves  Volcanic Ashes






- Airport Elevation : 231 ft
- IATA code : WTN


EGXW - RAF Waddington

CURRENT METAR :
  • 230731Z 16005KT 3600 -RA BKN008 OVC016 08/07 Q1005 TEMPO SCT003 RMK YLO1 TEMPO YLO2

EXPIRED METARs :
  • 230650Z 13006KT 6000 3600SE -RA FEW001 BKN022 07/07 Q1005 TEMPO SCT003 RMK YLO1 TEMPO YLO2
  • 230550Z 17005KT 5000 -RA FEW004 OVC014 08/07 Q1005 TEMPO 4000 RA SCT003 RMK GRN TEMPO YLO2
  • 230450Z AUTO 18004KT 9999 SCT020/// BKN028/// 08/06 Q1006 REDZ

TAF TAF EGXW
Valid from the 23 at 06:00 until the 24 at 00:00 UTC


230417Z 2306/2324 18006KT 9999 FEW008 BKN018
PROB30
TEMPO 2306/2309 4000 RA SCT003 BKN008
BECMG 2308/2310 FEW010
BECMG 2312/2315 BKN022
PROB30
TEMPO 2312/2316 6000 RA SCT012
BECMG 2315/2317 SCT045



MET'MAP, your aeronautical weather chart ! - Copyright ORBIFLY December 2007 - Disclaimer

ORBIFLY MET'MAP TEAM :

Programming & Development : Alexandra Zaïnal
Concept & original design : Baudouin d'Aumeries
Assistance for programming : Marc-Olivier Méhu
Technical & hardware support : Manuel Goepfert

Contact : metmap@orbifly.com




SOURCES & CREDITS :

   NOAA